KICL

Schenck Field Airport

Clarinda, Iowa, USA
METAR KICL 181615Z AUTO 23011KT 10SM CLR 03/03 A3001 RMK AO2
Observed Flight Rules
Dec-18 @ 16:15 UTC (16 minutes ago) Visual Flight Rules
Wind Visibility Clouds
230° at 11 knots 10 miles
  • Clear skies
Temperatures Readings
Current 3°C / 37°F
Dewpoint 3°C / 37°F
Humidity 100%
Altimeter 30.01" Hg
Pressure 1016 hPa
Elevation 303
METAR KICL 181615Z AUTO 23011KT 10SM CLR 03/03 A3001 RMK AO2
Observed Flight Rules
Dec-18 @ 16:15 UTC
(16 minutes ago)
VFR
Wind Visibility
230° at 11 knots 10 miles
Clouds
  • Clear skies
Temperature Dewpoint
3°C / 37°F 3°C / 37°F
Humidity Altimeter Pressure
100% 30.01" Hg 1016 hPa